createdAt,value
2022-08-17T00:00:09.109Z,26.10
2022-08-17T00:03:06.383Z,26.00
2022-08-17T00:05:37.872Z,25.90
2022-08-17T00:08:04.908Z,26.00
2022-08-17T00:10:32.303Z,25.80
2022-08-17T00:13:00.544Z,25.80
2022-08-17T00:15:27.509Z,25.80
2022-08-17T00:17:54.433Z,26.00
2022-08-17T00:20:23.374Z,26.10
2022-08-17T00:23:15.029Z,26.20
2022-08-17T00:25:45.738Z,26.20
2022-08-17T00:28:15.802Z,26.20
2022-08-17T00:30:53.072Z,26.10
2022-08-17T00:33:26.863Z,26.00
2022-08-17T00:35:54.829Z,26.10
2022-08-17T00:38:23.019Z,26.20
2022-08-17T00:40:55.827Z,26.10
2022-08-17T00:43:39.156Z,26.00
2022-08-17T00:46:12.224Z,26.00
2022-08-17T00:48:39.814Z,25.80
2022-08-17T00:51:09.828Z,25.80
2022-08-17T00:53:41.944Z,25.80
2022-08-17T00:56:12.787Z,25.80
2022-08-17T00:58:40.902Z,25.80
2022-08-17T01:01:09.828Z,25.90
2022-08-17T01:03:38.785Z,25.90
2022-08-17T01:06:09.872Z,25.90
2022-08-17T01:08:38.906Z,26.00
2022-08-17T01:11:06.788Z,26.00
2022-08-17T01:13:43.815Z,26.00
2022-08-17T01:16:16.369Z,26.00
2022-08-17T01:18:45.381Z,25.70
2022-08-17T01:21:26.736Z,25.60
2022-08-17T01:23:53.783Z,25.60
2022-08-17T01:26:21.342Z,25.60
2022-08-17T01:28:54.309Z,25.60
2022-08-17T01:31:24.578Z,25.60
2022-08-17T01:33:51.744Z,25.50
2022-08-17T01:36:18.877Z,25.50
2022-08-17T01:38:45.821Z,25.70
2022-08-17T01:41:16.327Z,25.80
2022-08-17T01:43:51.304Z,25.80
2022-08-17T01:46:28.583Z,25.80
2022-08-17T01:48:57.477Z,25.90
2022-08-17T01:51:32.919Z,26.00
2022-08-17T01:54:07.614Z,26.10
2022-08-17T01:56:36.834Z,25.90
2022-08-17T01:59:05.079Z,25.70
2022-08-17T02:01:34.664Z,25.70
2022-08-17T02:04:02.418Z,25.70
2022-08-17T02:06:52.522Z,25.80
2022-08-17T02:09:29.575Z,25.80
2022-08-17T02:11:59.556Z,25.60
2022-08-17T02:14:26.882Z,25.60
2022-08-17T02:16:54.383Z,25.60
2022-08-17T02:19:22.299Z,25.60
2022-08-17T02:21:51.680Z,25.70
2022-08-17T02:24:59.635Z,25.60
2022-08-17T02:27:12.842Z,25.50
2022-08-17T02:29:39.828Z,25.20
2022-08-17T02:32:06.998Z,25.30
2022-08-17T02:34:33.891Z,25.40
2022-08-17T02:37:00.755Z,25.40
2022-08-17T02:39:27.683Z,25.60
2022-08-17T02:42:01.754Z,25.60
2022-08-17T02:44:39.189Z,25.70
2022-08-17T02:47:08.715Z,25.70
2022-08-17T02:49:35.815Z,25.60
2022-08-17T02:52:04.931Z,25.50
2022-08-17T02:54:39.618Z,25.40
2022-08-17T02:57:09.984Z,25.30
2022-08-17T02:59:48.376Z,25.30
2022-08-17T03:02:16.085Z,25.20
2022-08-17T03:04:43.026Z,25.10
2022-08-17T03:07:09.885Z,25.00
2022-08-17T03:09:36.692Z,25.00
2022-08-17T03:12:08.488Z,25.10
2022-08-17T03:14:42.803Z,25.20
2022-08-17T03:17:17.482Z,25.20
2022-08-17T03:19:44.859Z,25.30
2022-08-17T03:22:36.010Z,25.30
2022-08-17T03:24:58.735Z,25.30
2022-08-17T03:27:25.708Z,25.30
2022-08-17T03:29:55.708Z,25.30
2022-08-17T03:32:22.699Z,25.30
2022-08-17T03:34:49.560Z,25.30
2022-08-17T03:37:17.503Z,25.30
2022-08-17T03:39:44.383Z,25.30
2022-08-17T03:42:31.835Z,25.10
2022-08-17T03:45:01.243Z,24.90
2022-08-17T03:47:47.044Z,25.00
2022-08-17T03:50:34.054Z,24.80
2022-08-17T03:53:24.910Z,24.80
2022-08-17T03:56:10.277Z,24.90
2022-08-17T03:58:37.631Z,25.00
2022-08-17T04:01:08.052Z,25.00
2022-08-17T04:03:35.309Z,25.10
2022-08-17T04:06:02.294Z,25.10
2022-08-17T04:08:30.485Z,25.10
2022-08-17T04:10:58.839Z,25.10
2022-08-17T04:13:26.161Z,25.10
2022-08-17T04:15:57.302Z,25.10
2022-08-17T04:18:24.408Z,25.10
2022-08-17T04:20:51.259Z,25.00
2022-08-17T04:23:19.237Z,24.90
2022-08-17T04:25:49.249Z,24.80
2022-08-17T04:28:18.071Z,24.70
2022-08-17T04:30:47.352Z,24.70
2022-08-17T04:33:28.426Z,24.70
2022-08-17T04:35:59.104Z,24.60
2022-08-17T04:38:28.586Z,24.60
2022-08-17T04:41:17.920Z,24.70
2022-08-17T04:43:47.067Z,24.70
2022-08-17T04:46:16.726Z,24.60
2022-08-17T04:48:50.280Z,24.70
2022-08-17T04:51:24.505Z,24.70
2022-08-17T04:53:55.204Z,24.80
2022-08-17T04:56:25.107Z,24.90
2022-08-17T04:58:55.052Z,25.10
2022-08-17T05:01:24.548Z,25.20
2022-08-17T05:03:58.962Z,25.30
2022-08-17T05:06:27.657Z,25.40
2022-08-17T05:08:54.962Z,25.40
2022-08-17T05:11:23.471Z,25.40
2022-08-17T05:13:50.537Z,25.30
2022-08-17T05:16:18.433Z,25.30
2022-08-17T05:18:45.540Z,25.20
2022-08-17T05:21:12.915Z,25.10
2022-08-17T05:23:42.667Z,25.20
2022-08-17T05:26:25.840Z,25.50
2022-08-17T05:29:00.566Z,25.90
2022-08-17T05:31:30.588Z,26.40
2022-08-17T05:34:00.528Z,26.50
2022-08-17T05:36:42.331Z,26.90
2022-08-17T05:39:16.171Z,27.20
2022-08-17T05:41:44.218Z,27.50
2022-08-17T05:44:11.102Z,27.70
2022-08-17T05:46:41.956Z,27.70
2022-08-17T05:49:09.544Z,27.80
2022-08-17T05:51:58.101Z,28.20
2022-08-17T05:54:33.087Z,28.40
2022-08-17T05:57:07.402Z,28.60
2022-08-17T05:59:56.063Z,28.80
2022-08-17T06:02:47.049Z,28.80
2022-08-17T06:05:29.509Z,28.90
2022-08-17T06:08:25.412Z,29.10
2022-08-17T06:11:19.843Z,29.30
2022-08-17T06:14:04.647Z,29.40
2022-08-17T06:16:36.738Z,29.50
2022-08-17T06:19:33.276Z,29.50
2022-08-17T06:22:02.759Z,29.40
2022-08-17T06:24:44.439Z,29.50
2022-08-17T06:27:36.262Z,29.30
2022-08-17T06:30:36.731Z,29.40
2022-08-17T06:33:27.063Z,29.60
2022-08-17T06:36:17.513Z,29.40
2022-08-17T06:38:50.880Z,29.60
2022-08-17T06:41:23.921Z,29.60
2022-08-17T06:44:43.119Z,29.60
2022-08-17T06:47:27.934Z,29.70
2022-08-17T06:50:21.724Z,29.60
2022-08-17T06:53:00.465Z,29.60
2022-08-17T06:55:38.313Z,29.50
2022-08-17T06:58:15.571Z,29.60
2022-08-17T07:00:47.103Z,29.60
2022-08-17T07:03:37.972Z,29.40
2022-08-17T07:06:20.926Z,29.60
2022-08-17T07:08:51.045Z,29.90
2022-08-17T07:11:27.250Z,30.00
2022-08-17T07:14:27.905Z,29.90
2022-08-17T07:16:56.776Z,29.90
2022-08-17T07:19:31.652Z,30.00
2022-08-17T07:22:30.639Z,30.10
2022-08-17T07:25:18.478Z,30.30
2022-08-17T07:27:52.640Z,30.40
2022-08-17T07:30:45.783Z,30.40
2022-08-17T07:33:27.667Z,30.60
2022-08-17T07:35:57.341Z,30.50
2022-08-17T07:38:32.541Z,30.50
2022-08-17T07:41:08.553Z,30.70
2022-08-17T07:43:41.628Z,30.70
2022-08-17T07:46:30.077Z,30.80
2022-08-17T07:49:03.439Z,30.90
2022-08-17T07:51:33.880Z,30.90
2022-08-17T07:54:14.466Z,31.00
2022-08-17T07:56:49.858Z,31.00
2022-08-17T07:59:27.270Z,31.00
2022-08-17T08:02:03.805Z,30.90
2022-08-17T08:05:00.271Z,30.80
2022-08-17T08:07:34.754Z,30.80
2022-08-17T08:10:16.841Z,30.80
2022-08-17T08:12:46.985Z,30.80
2022-08-17T08:15:18.550Z,30.80
2022-08-17T08:17:51.325Z,30.80
2022-08-17T08:20:51.311Z,30.90
2022-08-17T08:23:20.960Z,30.80
2022-08-17T08:26:18.857Z,30.70
2022-08-17T08:29:08.301Z,30.60
2022-08-17T08:31:47.113Z,30.40
2022-08-17T08:34:44.441Z,30.40
2022-08-17T08:37:33.698Z,30.30
2022-08-17T08:40:31.701Z,30.40
2022-08-17T08:43:08.535Z,30.40
2022-08-17T08:46:12.726Z,30.40
2022-08-17T08:48:56.696Z,30.40
2022-08-17T08:51:55.652Z,30.50
2022-08-17T08:54:41.383Z,30.40
2022-08-17T08:57:29.074Z,30.40
2022-08-17T09:00:05.042Z,30.30
2022-08-17T09:02:43.795Z,30.40
2022-08-17T09:05:14.981Z,30.30
2022-08-17T09:08:12.509Z,30.40
2022-08-17T09:10:53.463Z,30.40
2022-08-17T09:13:39.083Z,30.50
2022-08-17T09:16:15.331Z,30.50
2022-08-17T09:18:59.819Z,30.40
2022-08-17T09:21:54.542Z,30.40
2022-08-17T09:24:40.160Z,30.40
2022-08-17T09:27:16.087Z,30.50
2022-08-17T09:29:57.712Z,30.60
2022-08-17T09:32:33.563Z,30.60
2022-08-17T09:35:14.170Z,30.70
2022-08-17T09:37:52.386Z,30.80
2022-08-17T09:40:30.923Z,30.80
2022-08-17T09:43:07.873Z,30.80
2022-08-17T09:45:50.648Z,30.80
2022-08-17T09:48:30.178Z,30.80
2022-08-17T09:51:13.051Z,30.80
2022-08-17T09:53:40.682Z,30.90
2022-08-17T09:56:31.210Z,30.90
2022-08-17T09:59:20.114Z,30.90
2022-08-17T10:02:13.583Z,31.00
2022-08-17T10:04:58.851Z,31.00
2022-08-17T10:07:33.875Z,31.00
2022-08-17T10:10:18.016Z,30.90
2022-08-17T10:13:06.292Z,31.00
2022-08-17T10:16:02.333Z,31.00
2022-08-17T10:18:58.677Z,31.10
2022-08-17T10:21:45.155Z,31.20
2022-08-17T10:24:39.587Z,31.30
2022-08-17T10:27:42.835Z,31.20
2022-08-17T10:30:10.968Z,31.30
2022-08-17T10:32:49.511Z,31.30
2022-08-17T10:35:37.978Z,31.30
2022-08-17T10:38:29.291Z,31.40
2022-08-17T10:41:25.497Z,31.40
2022-08-17T10:44:39.557Z,31.50
2022-08-17T10:47:26.905Z,31.50
2022-08-17T10:49:54.271Z,31.60
2022-08-17T10:52:26.054Z,31.70
2022-08-17T10:54:58.157Z,31.60
2022-08-17T10:57:39.908Z,31.60
2022-08-17T11:00:15.602Z,31.70
2022-08-17T11:02:52.651Z,31.70
2022-08-17T11:05:50.214Z,31.80
2022-08-17T11:08:20.121Z,31.80
2022-08-17T11:10:55.722Z,31.80
2022-08-17T11:13:31.719Z,31.90
2022-08-17T11:16:26.161Z,31.90
2022-08-17T11:19:11.078Z,32.00
2022-08-17T11:21:40.683Z,32.00
2022-08-17T11:24:35.212Z,32.10
2022-08-17T11:27:11.987Z,32.10
2022-08-17T11:30:00.846Z,32.20
2022-08-17T11:32:54.676Z,32.20
2022-08-17T11:35:21.919Z,32.10
2022-08-17T11:37:58.993Z,32.20
2022-08-17T11:40:42.019Z,32.10
2022-08-17T11:43:46.376Z,32.10
2022-08-17T11:46:51.894Z,32.00
2022-08-17T11:50:15.237Z,32.10
2022-08-17T11:52:46.886Z,32.10
2022-08-17T11:55:35.670Z,32.20
2022-08-17T11:58:37.444Z,32.20
2022-08-17T12:01:07.086Z,32.20
2022-08-17T12:03:33.962Z,32.30
2022-08-17T12:06:17.655Z,32.30
2022-08-17T12:09:01.462Z,32.30
2022-08-17T12:11:57.796Z,32.30
2022-08-17T12:15:08.990Z,32.30
2022-08-17T12:17:41.550Z,32.40
2022-08-17T12:20:21.743Z,32.40
2022-08-17T12:23:09.426Z,32.40
2022-08-17T12:25:46.271Z,32.50
2022-08-17T12:28:30.143Z,32.40
2022-08-17T12:31:07.640Z,32.40
2022-08-17T12:33:37.296Z,32.40
2022-08-17T12:36:08.565Z,32.50
2022-08-17T12:38:37.901Z,32.50
2022-08-17T12:41:26.232Z,32.60
2022-08-17T12:44:23.309Z,32.60
2022-08-17T12:47:02.209Z,32.60
2022-08-17T12:49:35.637Z,32.60
2022-08-17T12:52:16.497Z,32.60
2022-08-17T12:55:01.969Z,32.60
2022-08-17T12:57:49.516Z,32.60
2022-08-17T13:00:24.863Z,32.60
2022-08-17T13:02:58.104Z,32.60
2022-08-17T13:05:27.686Z,32.60
2022-08-17T13:07:59.829Z,32.60
2022-08-17T13:10:32.721Z,32.50
2022-08-17T13:13:05.960Z,32.50
2022-08-17T13:15:57.136Z,32.50
2022-08-17T13:18:44.406Z,32.50
2022-08-17T13:21:33.253Z,32.60
2022-08-17T13:24:20.301Z,32.70
2022-08-17T13:26:49.387Z,32.70
2022-08-17T13:29:51.510Z,32.70
2022-08-17T13:32:33.600Z,32.80
2022-08-17T13:35:32.831Z,32.80
2022-08-17T13:38:34.728Z,32.90
2022-08-17T13:41:01.730Z,32.90
2022-08-17T13:43:45.898Z,32.90
2022-08-17T13:46:20.000Z,32.90
2022-08-17T13:48:57.196Z,32.90
2022-08-17T13:51:30.490Z,32.90
2022-08-17T13:54:00.348Z,32.70
2022-08-17T13:56:38.329Z,32.80
2022-08-17T13:59:12.632Z,32.90
2022-08-17T14:01:41.907Z,32.90
2022-08-17T14:04:19.843Z,32.90
2022-08-17T14:07:01.110Z,32.90
2022-08-17T14:09:37.201Z,32.80
2022-08-17T14:12:11.627Z,32.70
2022-08-17T14:14:39.332Z,32.80
2022-08-17T14:17:07.993Z,32.80
2022-08-17T14:19:36.031Z,32.90
2022-08-17T14:22:04.916Z,32.90
2022-08-17T14:24:35.158Z,32.90
2022-08-17T14:27:04.338Z,32.90
2022-08-17T14:29:33.229Z,32.90
2022-08-17T14:32:05.545Z,32.90
2022-08-17T14:34:32.736Z,32.90
2022-08-17T14:36:59.647Z,32.90
2022-08-17T14:39:26.578Z,32.90
2022-08-17T14:41:53.549Z,32.80
2022-08-17T14:44:20.462Z,32.70
2022-08-17T14:46:49.047Z,32.70
2022-08-17T14:49:15.924Z,32.80
2022-08-17T14:51:43.995Z,32.80
2022-08-17T14:54:33.633Z,32.80
2022-08-17T14:57:23.691Z,32.70
2022-08-17T14:59:55.125Z,32.70
2022-08-17T15:02:29.969Z,32.70
2022-08-17T15:05:02.093Z,32.70
2022-08-17T15:07:30.743Z,32.70
2022-08-17T15:09:58.792Z,32.70
2022-08-17T15:12:32.428Z,32.80
2022-08-17T15:15:00.871Z,32.70
2022-08-17T15:17:45.043Z,32.80
2022-08-17T15:20:19.012Z,32.80
2022-08-17T15:22:49.835Z,32.90
2022-08-17T15:25:18.040Z,32.90
2022-08-17T15:27:45.002Z,32.90
2022-08-17T15:30:12.830Z,32.80
2022-08-17T15:32:50.779Z,32.80
2022-08-17T15:35:25.171Z,32.80
2022-08-17T15:37:54.788Z,32.70
2022-08-17T15:40:21.653Z,32.70
2022-08-17T15:42:49.009Z,32.70
2022-08-17T15:45:16.960Z,32.70
2022-08-17T15:47:43.993Z,32.70
2022-08-17T15:50:11.143Z,32.70
2022-08-17T15:52:42.251Z,32.60
2022-08-17T15:55:12.837Z,32.50
2022-08-17T15:57:40.402Z,32.50
2022-08-17T16:00:09.426Z,32.50
2022-08-17T16:03:15.019Z,32.50
2022-08-17T16:05:28.566Z,32.50
2022-08-17T16:07:59.801Z,32.50
2022-08-17T16:10:35.016Z,32.50
2022-08-17T16:13:04.223Z,32.50
2022-08-17T16:15:31.828Z,32.50
2022-08-17T16:17:59.218Z,32.50
2022-08-17T16:20:26.511Z,32.50
2022-08-17T16:22:54.458Z,32.40
2022-08-17T16:25:52.168Z,32.40
2022-08-17T16:28:13.184Z,32.30
2022-08-17T16:30:41.259Z,32.30
2022-08-17T16:33:11.599Z,32.30
2022-08-17T16:35:39.250Z,32.20
2022-08-17T16:38:07.301Z,32.30
2022-08-17T16:40:36.281Z,32.20
2022-08-17T16:43:12.080Z,32.10
2022-08-17T16:45:40.636Z,32.00
2022-08-17T16:48:09.068Z,31.90
2022-08-17T16:50:36.539Z,31.90
2022-08-17T16:53:10.615Z,31.90
2022-08-17T16:55:38.269Z,31.90
2022-08-17T16:58:06.383Z,31.90
2022-08-17T17:00:33.999Z,31.80
2022-08-17T17:03:19.385Z,31.70
2022-08-17T17:06:07.216Z,31.70
2022-08-17T17:08:46.709Z,31.60
2022-08-17T17:11:21.621Z,31.60
2022-08-17T17:14:01.992Z,31.50
2022-08-17T17:16:28.832Z,31.50
2022-08-17T17:19:34.377Z,31.40
2022-08-17T17:22:26.905Z,31.30
2022-08-17T17:25:05.768Z,31.20
2022-08-17T17:28:01.980Z,31.10
2022-08-17T17:30:59.234Z,31.00
2022-08-17T17:33:38.577Z,31.00
2022-08-17T17:36:27.954Z,31.00
2022-08-17T17:39:01.378Z,30.90
2022-08-17T17:41:38.620Z,30.80
2022-08-17T17:44:12.249Z,30.80
2022-08-17T17:46:50.969Z,30.80
2022-08-17T17:49:18.806Z,30.80
2022-08-17T17:52:06.301Z,30.80
2022-08-17T17:54:52.200Z,30.90
2022-08-17T17:57:25.154Z,31.00
2022-08-17T18:00:00.019Z,30.70
2022-08-17T18:02:52.089Z,30.50
2022-08-17T18:05:37.315Z,30.30
2022-08-17T18:08:19.299Z,30.00
2022-08-17T18:11:05.022Z,29.80
2022-08-17T18:14:07.616Z,29.50
2022-08-17T18:16:35.022Z,29.40
2022-08-17T18:19:01.898Z,29.10
2022-08-17T18:21:37.764Z,28.90
2022-08-17T18:24:10.395Z,28.60
2022-08-17T18:27:08.641Z,28.40
2022-08-17T18:29:42.743Z,28.10
2022-08-17T18:32:22.996Z,27.90
2022-08-17T18:34:54.070Z,27.80
2022-08-17T18:37:30.511Z,27.80
2022-08-17T18:39:57.408Z,27.80
2022-08-17T18:42:29.872Z,27.60
2022-08-17T18:44:57.051Z,27.50
2022-08-17T18:47:29.164Z,27.40
2022-08-17T18:50:21.467Z,27.40
2022-08-17T18:52:48.771Z,27.40
2022-08-17T18:55:21.711Z,27.30
2022-08-17T18:57:49.579Z,27.20
2022-08-17T19:00:38.224Z,27.10
2022-08-17T19:03:20.135Z,27.40
2022-08-17T19:05:51.677Z,27.60
2022-08-17T19:08:30.865Z,27.60
2022-08-17T19:11:00.193Z,27.60
2022-08-17T19:13:53.047Z,27.60
2022-08-17T19:16:31.205Z,27.70
2022-08-17T19:19:14.431Z,27.80
2022-08-17T19:21:53.204Z,27.90
2022-08-17T19:24:22.880Z,27.80
2022-08-17T19:27:00.460Z,27.90
2022-08-17T19:29:37.434Z,28.00
2022-08-17T19:32:07.000Z,27.90
2022-08-17T19:34:36.571Z,27.90
2022-08-17T19:37:12.582Z,27.80
2022-08-17T19:40:41.715Z,27.50
2022-08-17T19:43:26.379Z,27.40
2022-08-17T19:46:03.868Z,27.50
2022-08-17T19:48:35.582Z,27.50
2022-08-17T19:51:17.810Z,27.60
2022-08-17T19:54:06.603Z,27.70
2022-08-17T19:56:52.395Z,27.80
2022-08-17T19:59:22.325Z,27.70
2022-08-17T20:01:54.256Z,27.60
2022-08-17T20:04:35.744Z,27.40
2022-08-17T20:07:19.657Z,27.40
2022-08-17T20:09:52.876Z,27.50
2022-08-17T20:12:23.926Z,27.50
2022-08-17T20:14:59.499Z,27.50
2022-08-17T20:17:41.476Z,27.50
2022-08-17T20:20:47.233Z,27.50
2022-08-17T20:23:51.977Z,27.50
2022-08-17T20:26:26.436Z,27.30
2022-08-17T20:29:37.798Z,27.20
2022-08-17T20:32:18.793Z,27.20
2022-08-17T20:34:47.339Z,27.00
2022-08-17T20:37:26.318Z,27.10
2022-08-17T20:39:53.243Z,27.20
2022-08-17T20:42:20.138Z,27.20
2022-08-17T20:44:50.424Z,27.20
2022-08-17T20:47:50.626Z,27.20
2022-08-17T20:50:41.482Z,27.00
2022-08-17T20:53:13.553Z,26.80
2022-08-17T20:55:52.276Z,26.70
2022-08-17T20:58:23.049Z,26.60
2022-08-17T21:01:09.269Z,26.60
2022-08-17T21:03:50.974Z,26.50
2022-08-17T21:06:21.892Z,26.40
2022-08-17T21:09:17.249Z,26.50
2022-08-17T21:12:05.645Z,26.50
2022-08-17T21:15:07.104Z,26.50
2022-08-17T21:17:50.243Z,26.50
2022-08-17T21:20:57.357Z,26.50
2022-08-17T21:23:52.033Z,26.20
2022-08-17T21:26:38.888Z,26.20
2022-08-17T21:29:31.705Z,26.10
2022-08-17T21:31:59.597Z,26.10
2022-08-17T21:34:33.439Z,26.10
2022-08-17T21:37:18.925Z,26.20
2022-08-17T21:40:22.465Z,26.30
2022-08-17T21:42:59.026Z,26.30
2022-08-17T21:45:37.953Z,26.10
2022-08-17T21:48:27.381Z,26.10
2022-08-17T21:51:14.491Z,26.10
2022-08-17T21:53:46.675Z,26.10
2022-08-17T21:56:40.367Z,26.20
2022-08-17T21:59:07.186Z,26.00
2022-08-17T22:01:40.346Z,26.10
2022-08-17T22:04:31.920Z,26.10
2022-08-17T22:07:02.184Z,26.10
2022-08-17T22:09:43.194Z,26.10
2022-08-17T22:12:17.526Z,26.10
2022-08-17T22:14:56.721Z,26.10
2022-08-17T22:17:25.423Z,26.10
2022-08-17T22:20:14.903Z,26.10
2022-08-17T22:23:08.786Z,26.10
2022-08-17T22:25:40.617Z,26.10
2022-08-17T22:28:12.948Z,26.10
2022-08-17T22:30:43.736Z,26.20
2022-08-17T22:33:29.219Z,26.30
2022-08-17T22:36:12.782Z,26.30
2022-08-17T22:38:41.550Z,26.40
2022-08-17T22:41:36.340Z,26.30
2022-08-17T22:44:09.189Z,26.10
2022-08-17T22:46:41.072Z,26.00
2022-08-17T22:49:08.205Z,26.00
2022-08-17T22:51:35.659Z,26.10
2022-08-17T22:54:31.924Z,26.10
2022-08-17T22:57:20.477Z,25.90
2022-08-17T22:59:53.818Z,25.80
2022-08-17T23:02:25.622Z,25.60
2022-08-17T23:04:57.336Z,25.60
2022-08-17T23:07:24.239Z,25.50
2022-08-17T23:09:53.043Z,25.50
2022-08-17T23:12:26.436Z,25.60
2022-08-17T23:15:00.472Z,25.70
2022-08-17T23:17:37.109Z,25.90
2022-08-17T23:20:08.357Z,26.00
2022-08-17T23:22:38.116Z,26.00
2022-08-17T23:25:30.691Z,26.00
2022-08-17T23:28:01.487Z,26.00
2022-08-17T23:30:31.181Z,25.80
2022-08-17T23:33:05.474Z,25.60
2022-08-17T23:35:39.317Z,25.50
2022-08-17T23:38:12.004Z,25.60
2022-08-17T23:40:39.890Z,25.50
2022-08-17T23:43:23.537Z,25.50
2022-08-17T23:45:53.862Z,25.60
2022-08-17T23:48:35.173Z,25.60
2022-08-17T23:51:05.803Z,25.40
2022-08-17T23:53:34.927Z,25.30
2022-08-17T23:56:03.971Z,25.40
2022-08-17T23:58:38.544Z,25.50
